Time;durP1;ratioP1;P1;durP2;ratioP2;P2;SDS_P1;SDS_P2;PMS_P1;PMS_P2;Temp;Humidity;BMP_temperature;BMP_pressure;BME280_temperature;BME280_humidity;BME280_pressure;Samples;Min_cycle;Max_cycle;Signal;HPM_P1;HPM_P2
2021/12/29 00:00:15;;;;;;;1.00;1.00;;;;;;;2.96;65.80;99282.47;686980;28;21525;-70
2021/12/29 00:00:37;;;;;;;1.00;1.00;;;;;;;2.97;65.78;99278.78;685391;28;69351;-70
2021/12/29 00:00:59;;;;;;;1.00;1.00;;;;;;;2.97;65.90;99280.63;686195;28;44356;-69
2021/12/29 00:01:20;;;;;;;0.90;0.90;;;;;;;2.98;65.83;99279.59;687544;28;22392;-70
2021/12/29 00:01:42;;;;;;;0.90;0.90;;;;;;;2.97;65.76;99275.28;688325;28;45168;-70
2021/12/29 00:02:03;;;;;;;0.90;0.90;;;;;;;2.98;65.86;99282.25;689106;28;46424;-70
2021/12/29 00:02:24;;;;;;;1.20;1.20;;;;;;;2.98;65.75;99283.13;689561;28;21525;-70
2021/12/29 00:02:45;;;;;;;1.20;1.20;;;;;;;2.97;65.71;99286.78;690146;28;22435;-70
2021/12/29 00:03:08;;;;;;;1.10;1.10;;;;;;;2.96;65.83;99281.59;689628;28;22195;-71
2021/12/29 00:03:29;;;;;;;1.30;1.30;;;;;;;2.94;65.83;99284.44;688729;28;46238;-70
2021/12/29 00:03:50;;;;;;;1.20;1.20;;;;;;;2.93;65.83;99284.59;689731;28;21307;-70
2021/12/29 00:04:11;;;;;;;1.27;1.27;;;;;;;2.95;65.80;99285.28;691182;28;43355;-70
2021/12/29 00:04:33;;;;;;;1.40;1.40;;;;;;;2.96;65.80;99284.28;692523;28;23479;-70
2021/12/29 00:04:54;;;;;;;1.55;1.50;;;;;;;2.94;65.81;99286.28;691295;28;46339;-71
2021/12/29 00:05:15;;;;;;;1.52;1.50;;;;;;;2.92;65.74;99283.78;691413;28;45226;-67
2021/12/29 00:05:36;;;;;;;1.40;1.40;;;;;;;2.93;65.78;99281.94;691832;28;21537;-66
2021/12/29 00:05:58;;;;;;;1.38;1.38;;;;;;;2.92;65.81;99285.63;692274;28;22410;-67
2021/12/29 00:06:20;;;;;;;1.20;1.20;;;;;;;2.91;66.04;99283.94;691626;28;44161;-68
2021/12/29 00:06:41;;;;;;;1.25;1.25;;;;;;;2.89;66.02;99284.09;691374;28;45271;-68
2021/12/29 00:07:02;;;;;;;1.35;1.35;;;;;;;2.89;66.36;99281.44;692477;28;21477;-70
2021/12/29 00:07:24;;;;;;;1.48;1.48;;;;;;;2.87;66.34;99284.25;692645;28;22381;-70
2021/12/29 00:07:46;;;;;;;1.52;1.52;;;;;;;2.85;66.28;99285.41;692589;28;22420;-70
2021/12/29 00:08:07;;;;;;;2.65;2.45;;;;;;;2.85;66.55;99285.41;690756;28;68275;-70
2021/12/29 00:08:28;;;;;;;2.35;2.25;;;;;;;2.85;66.36;99283.59;689523;28;1649;-68
2021/12/29 00:08:49;;;;;;;1.20;1.20;;;;;;;2.84;66.29;99287.25;689690;28;22398;-67
2021/12/29 00:09:10;;;;;;;1.10;1.10;;;;;;;2.85;66.13;99285.41;688366;28;42612;-67
2021/12/29 00:09:36;;;;;;;1.05;1.05;;;;;;;2.87;66.38;99286.94;686269;28;23259;-68
2021/12/29 00:10:00;;;;;;;1.30;1.30;;;;;;;2.87;66.11;99286.09;683071;28;138388;-70
2021/12/29 00:10:22;;;;;;;2.00;1.90;;;;;;;2.89;66.30;99289.44;683256;28;92289;-69
2021/12/29 00:10:44;;;;;;;2.70;2.50;;;;;;;2.90;66.33;99285.78;689163;28;21466;-70
2021/12/29 00:11:06;;;;;;;1.50;1.50;;;;;;;2.91;66.36;99290.09;688038;28;67597;-69
2021/12/29 00:11:27;;;;;;;1.35;1.35;;;;;;;2.94;66.14;99288.94;690879;28;46422;-68
2021/12/29 00:11:48;;;;;;;1.40;1.40;;;;;;;2.92;66.17;99289.09;691098;28;46489;-68
2021/12/29 00:12:11;;;;;;;1.30;1.30;;;;;;;2.92;66.15;99290.94;691723;28;21339;-67
2021/12/29 00:12:39;;;;;;;1.40;1.40;;;;;;;2.91;66.06;99291.94;690439;28;69784;-68
2021/12/29 00:13:04;;;;;;;1.10;1.10;;;;;;;2.91;65.99;99289.25;688227;28;136138;-70
2021/12/29 00:13:27;;;;;;;1.02;1.02;;;;;;;2.90;66.21;99291.09;689184;28;113446;-71
2021/12/29 00:13:49;;;;;;;1.00;1.00;;;;;;;2.88;66.40;99291.28;690298;28;91306;-70
2021/12/29 00:14:10;;;;;;;1.30;1.30;;;;;;;2.88;66.79;99283.28;691177;28;22384;-70
2021/12/29 00:14:31;;;;;;;1.10;1.10;;;;;;;2.89;67.21;99294.75;691147;28;46405;-70
2021/12/29 00:14:52;;;;;;;1.10;1.10;;;;;;;2.88;67.35;99296.59;692685;28;22178;-67
2021/12/29 00:15:16;;;;;;;1.10;1.10;;;;;;;2.88;67.63;99298.41;692592;28;22392;-68
2021/12/29 00:15:37;;;;;;;1.30;1.30;;;;;;;2.89;67.67;99297.44;689827;28;92293;-68
2021/12/29 00:16:05;;;;;;;1.23;1.23;;;;;;;2.90;67.52;99296.44;692404;28;13503;-68
2021/12/29 00:16:36;;;;;;;2.20;2.10;;;;;;;2.98;67.35;99295.59;688506;28;135986;-67
2021/12/29 00:16:58;;;;;;;1.00;1.00;;;;;;;3.00;67.64;99304.28;691369;28;46152;-67
2021/12/29 00:17:19;;;;;;;1.38;1.35;;;;;;;3.01;67.40;99297.94;691038;28;46158;-70
2021/12/29 00:17:42;;;;;;;1.95;1.85;;;;;;;3.00;67.38;99302.44;691753;28;23555;-71
2021/12/29 00:18:04;;;;;;;2.13;2.03;;;;;;;2.98;67.76;99291.13;690848;28;67278;-69
2021/12/29 00:18:27;;;;;;;1.48;1.48;;;;;;;3.01;67.90;99297.94;690689;28;69465;-71
2021/12/29 00:19:03;;;;;;;1.20;1.20;;;;;;;3.05;67.78;99300.13;692055;28;69438;-71
2021/12/29 00:19:25;;;;;;;1.60;1.60;;;;;;;3.04;67.52;99302.94;688784;28;102567;-67
2021/12/29 00:19:46;;;;;;;1.20;1.20;;;;;;;3.04;67.56;99298.47;691750;28;44401;-70
2021/12/29 00:20:09;;;;;;;1.20;1.20;;;;;;;3.04;67.51;99294.94;691756;28;22433;-72
2021/12/29 00:20:32;;;;;;;2.90;2.70;;;;;;;3.04;67.43;99297.63;687038;28;69442;-70
2021/12/29 00:20:54;;;;;;;1.60;1.52;;;;;;;3.05;67.48;99299.28;690638;28;69500;-69
2021/12/29 00:21:15;;;;;;;0.60;0.60;;;;;;;3.05;67.54;99305.44;693537;28;24433;-71
2021/12/29 00:21:37;;;;;;;0.80;0.80;;;;;;;3.05;67.67;99301.97;692592;28;22482;-71
2021/12/29 00:21:59;;;;;;;1.00;1.00;;;;;;;3.02;67.75;99294.28;691409;28;45236;-70
2021/12/29 00:22:24;;;;;;;1.90;1.80;;;;;;;3.04;67.94;99309.13;684205;28;67893;-71
2021/12/29 00:22:48;;;;;;;2.42;2.25;;;;;;;2.98;68.19;99299.13;682807;28;60122;-70
2021/12/29 00:23:10;;;;;;;2.35;2.22;;;;;;;3.04;68.11;99308.28;681597;28;32106;-71
2021/12/29 00:23:32;;;;;;;1.70;1.60;;;;;;;3.06;67.76;99298.31;682053;28;45360;-71
2021/12/29 00:23:58;;;;;;;1.30;1.30;;;;;;;3.05;67.62;99304.63;682006;28;23181;-69
2021/12/29 00:24:20;;;;;;;1.00;1.00;;;;;;;3.06;67.23;99301.78;681432;28;138176;-68
2021/12/29 00:24:41;;;;;;;1.15;1.15;;;;;;;3.06;67.33;99306.31;687314;28;44387;-70
2021/12/29 00:25:04;;;;;;;5.70;5.50;;;;;;;3.06;67.15;99307.13;691184;28;22918;-70
2021/12/29 00:25:25;;;;;;;2.47;2.42;;;;;;;3.05;66.90;99308.13;691551;28;37498;-68
2021/12/29 00:25:47;;;;;;;1.25;1.25;;;;;;;3.04;66.82;99311.81;690942;28;44995;-67
2021/12/29 00:26:11;;;;;;;101.18;96.03;;;;;;;3.07;66.66;99313.28;691593;28;46058;-68
2021/12/29 00:26:33;;;;;;;250.02;236.30;;;;;;;3.08;66.55;99314.16;689729;28;90327;-68
2021/12/29 00:26:54;;;;;;;530.45;499.67;;;;;;;3.08;66.57;99308.81;691661;28;46403;-68
2021/12/29 00:27:15;;;;;;;221.98;208.52;;;;;;;3.10;66.53;99309.47;689058;28;23513;-67
2021/12/29 00:27:38;;;;;;;1.10;1.10;;;;;;;3.09;66.18;99316.66;688750;28;22421;-67
2021/12/29 00:28:02;;;;;;;0.90;0.90;;;;;;;3.07;66.45;99318.63;687492;28;69399;-68
2021/12/29 00:28:23;;;;;;;0.70;0.70;;;;;;;3.05;66.35;99321.47;688436;28;70952;-67
2021/12/29 00:28:45;;;;;;;1.38;1.35;;;;;;;3.08;66.34;99312.31;687296;28;1872;-70
2021/12/29 00:29:07;;;;;;;2.70;2.60;;;;;;;3.08;66.48;99314.97;683098;28;45248;-70
2021/12/29 00:29:28;;;;;;;0.80;0.80;;;;;;;3.09;66.26;99315.78;683208;28;46415;-67
2021/12/29 00:30:12;;;;;;;892.35;838.80;;;;;;;3.10;66.45;99315.63;680443;28;135480;-68
2021/12/29 00:30:52;;;;;;;578.08;543.80;;;;;;;3.11;66.49;99314.66;683033;28;137243;-71
2021/12/29 00:31:42;;;;;;;3.85;3.72;;;;;;;3.16;66.61;99316.81;678886;28;137497;-71
2021/12/29 00:32:40;;;;;;;901.88;847.65;;;;;;;3.15;66.67;99316.00;670153;29;162089;-70
2021/12/29 00:33:19;;;;;;;937.03;882.22;;;;;;;3.14;66.80;99313.50;671612;29;137394;-69
2021/12/29 00:34:00;;;;;;;975.15;916.13;;;;;;;3.15;66.87;99318.66;675801;28;137448;-70
2021/12/29 00:34:40;;;;;;;14.48;13.77;;;;;;;3.12;67.07;99315.47;677533;28;137705;-70
2021/12/29 00:35:20;;;;;;;28.92;27.63;;;;;;;3.14;66.90;99319.66;678179;28;137431;-67
2021/12/29 00:36:08;;;;;;;103.38;98.40;;;;;;;3.13;67.43;99314.47;678331;28;138587;-70
2021/12/29 00:36:53;;;;;;;1002.00;943.00;;;;;;;3.15;67.26;99309.81;673276;29;137859;-69
2021/12/29 00:37:33;;;;;;;1008.55;946.30;;;;;;;3.21;66.93;99315.34;676974;29;137820;-67
2021/12/29 00:38:13;;;;;;;815.17;765.08;;;;;;;3.23;66.86;99318.66;688365;28;138404;-70
2021/12/29 00:39:00;;;;;;;0.98;0.98;;;;;;;3.19;67.13;99322.66;675049;29;137797;-70
2021/12/29 00:39:41;;;;;;;23.48;22.35;;;;;;;3.16;67.37;99320.31;677968;28;137660;-70
2021/12/29 00:40:25;;;;;;;263.02;250.00;;;;;;;3.14;67.26;99325.00;673609;28;137349;-70
2021/12/29 00:41:06;;;;;;;84.43;80.43;;;;;;;3.14;67.74;99321.50;687134;28;160875;-68
2021/12/29 00:41:56;;;;;;;0.80;0.80;;;;;;;3.14;67.47;99325.00;677361;29;135824;-67
2021/12/29 00:42:47;;;;;;;0.80;0.80;;;;;;;3.11;67.68;99336.00;679938;29;60646;-71
2021/12/29 00:43:26;;;;;;;0.88;0.88;;;;;;;3.08;67.97;99330.97;677421;29;137588;-70
2021/12/29 00:44:19;;;;;;;0.80;0.80;;;;;;;3.03;68.12;99326.13;686935;28;156292;-70
2021/12/29 00:45:04;;;;;;;12.13;11.52;;;;;;;3.01;68.63;99329.94;684202;28;161337;-68
2021/12/29 00:45:26;;;;;;;63.70;60.03;;;;;;;3.01;68.68;99328.13;688127;28;45558;-68
2021/12/29 00:45:50;;;;;;;615.22;577.08;;;;;;;3.00;68.78;99328.28;688539;28;46365;-70
2021/12/29 00:46:12;;;;;;;951.85;891.22;;;;;;;2.99;68.81;99329.28;686798;28;92247;-70
2021/12/29 00:46:36;;;;;;;966.20;902.97;;;;;;;2.98;68.92;99328.47;685568;28;44313;-71
2021/12/29 00:46:57;;;;;;;470.92;440.80;;;;;;;2.98;68.89;99330.28;685604;28;92091;-68
2021/12/29 00:47:19;;;;;;;413.23;387.17;;;;;;;2.97;68.86;99329.44;689201;28;22403;-68
2021/12/29 00:47:40;;;;;;;54.42;51.50;;;;;;;2.97;68.64;99337.44;687574;28;45222;-68
2021/12/29 00:48:01;;;;;;;20.83;19.73;;;;;;;2.96;68.77;99332.28;689463;28;22273;-70
2021/12/29 00:48:29;;;;;;;96.43;91.53;;;;;;;2.95;68.56;99331.44;690098;28;23411;-70
2021/12/29 00:48:50;;;;;;;206.30;195.98;;;;;;;2.94;68.71;99332.44;688439;28;137647;-71
2021/12/29 00:49:12;;;;;;;438.25;414.77;;;;;;;2.94;68.67;99337.78;690769;28;43670;-69
2021/12/29 00:49:35;;;;;;;788.90;743.40;;;;;;;2.95;68.88;99330.63;691307;28;47417;-70
2021/12/29 00:49:58;;;;;;;901.53;847.78;;;;;;;2.95;68.64;99328.78;690683;28;69467;-70
2021/12/29 00:50:20;;;;;;;317.10;297.42;;;;;;;2.95;68.60;99333.28;690707;28;69435;-70
2021/12/29 00:50:41;;;;;;;12.07;11.57;;;;;;;2.94;68.59;99331.63;691661;28;46207;-70
2021/12/29 00:51:03;;;;;;;1.10;1.10;;;;;;;2.95;68.44;99330.63;692402;28;21551;-69
2021/12/29 00:51:24;;;;;;;1.20;1.20;;;;;;;2.94;68.37;99326.28;691672;28;44401;-70
2021/12/29 00:51:46;;;;;;;1.10;1.10;;;;;;;2.92;68.88;99325.63;693282;28;2488;-71
2021/12/29 00:52:08;;;;;;;0.90;0.90;;;;;;;2.93;68.75;99329.94;691610;28;45406;-69
2021/12/29 00:52:29;;;;;;;1.20;1.20;;;;;;;2.93;68.87;99337.94;691331;28;46429;-71
2021/12/29 00:52:51;;;;;;;1.40;1.40;;;;;;;2.92;68.97;99330.94;692296;28;21545;-69
2021/12/29 00:53:12;;;;;;;1.40;1.40;;;;;;;2.94;68.77;99332.44;688605;28;45260;-68
2021/12/29 00:53:33;;;;;;;1.75;1.65;;;;;;;2.96;68.78;99332.28;689476;28;22479;-70
2021/12/29 00:53:54;;;;;;;1.27;1.27;;;;;;;2.98;68.33;99332.94;688833;28;22416;-69
2021/12/29 00:54:16;;;;;;;1.30;1.30;;;;;;;2.99;68.33;99329.28;689518;28;21643;-71
2021/12/29 00:54:39;;;;;;;1.45;1.45;;;;;;;2.98;68.05;99331.13;685850;28;44399;-69
2021/12/29 00:55:01;;;;;;;48.05;45.53;;;;;;;2.98;68.08;99338.28;685885;28;70670;-69
2021/12/29 00:55:22;;;;;;;76.10;71.90;;;;;;;2.99;68.19;99331.94;689399;28;22401;-69
2021/12/29 00:55:44;;;;;;;0.80;0.80;;;;;;;2.99;68.00;99338.09;689689;28;45266;-70
2021/12/29 00:56:05;;;;;;;0.90;0.90;;;;;;;2.97;68.06;99332.13;688989;28;22219;-69
2021/12/29 00:56:26;;;;;;;1.00;1.00;;;;;;;2.99;68.02;99331.94;689290;28;46164;-70
2021/12/29 00:56:47;;;;;;;1.17;1.17;;;;;;;3.02;68.03;99340.44;692296;28;22408;-69
2021/12/29 00:57:10;;;;;;;1.67;1.60;;;;;;;3.01;67.82;99338.81;691692;28;23515;-69
2021/12/29 00:57:31;;;;;;;1.73;1.63;;;;;;;3.02;67.98;99343.13;690738;28;69411;-70
2021/12/29 00:57:52;;;;;;;1.80;1.70;;;;;;;3.01;68.00;99333.47;691060;28;23624;-70
2021/12/29 00:58:14;;;;;;;1.50;1.50;;;;;;;3.01;67.97;99336.13;693325;28;22412;-69
2021/12/29 00:58:36;;;;;;;2.90;2.80;;;;;;;3.02;67.86;99336.97;688465;28;46510;-69
2021/12/29 00:58:57;;;;;;;1.05;1.05;;;;;;;3.04;67.58;99340.28;688349;28;22434;-70
2021/12/29 00:59:19;;;;;;;0.88;0.88;;;;;;;3.03;67.74;99346.66;688620;28;45337;-70
2021/12/29 00:59:42;;;;;;;0.90;0.90;;;;;;;3.06;67.59;99343.66;688570;28;46340;-70
2021/12/29 01:00:04;;;;;;;0.80;0.80;;;;;;;3.04;67.51;99340.28;688687;28;46067;-70
2021/12/29 01:00:26;;;;;;;0.93;0.93;;;;;;;3.03;67.40;99347.47;689083;28;59359;-69
2021/12/29 01:00:48;;;;;;;1.00;1.00;;;;;;;3.05;67.86;99352.66;692011;28;45274;-69
2021/12/29 01:01:09;;;;;;;0.90;0.90;;;;;;;3.05;68.33;99355.31;691359;28;44507;-69
2021/12/29 01:01:30;;;;;;;0.90;0.90;;;;;;;3.05;68.77;99345.47;692452;28;22377;-70
2021/12/29 01:01:52;;;;;;;0.70;0.70;;;;;;;3.04;68.77;99353.63;692336;28;21542;-69
2021/12/29 01:02:13;;;;;;;0.80;0.80;;;;;;;3.04;69.04;99353.63;691686;28;46352;-69
2021/12/29 01:02:35;;;;;;;0.90;0.90;;;;;;;3.01;69.20;99343.28;692265;28;22393;-70
2021/12/29 01:02:56;;;;;;;0.88;0.88;;;;;;;3.00;69.11;99344.31;691224;28;46290;-70
2021/12/29 01:03:18;;;;;;;1.13;1.13;;;;;;;2.99;69.40;99354.13;692450;28;22412;-69
2021/12/29 01:03:39;;;;;;;1.30;1.30;;;;;;;3.00;69.06;99354.97;691712;28;46290;-70
2021/12/29 01:04:01;;;;;;;1.50;1.50;;;;;;;2.98;69.26;99348.94;691062;28;23742;-69
2021/12/29 01:04:24;;;;;;;1.90;1.90;;;;;;;2.97;69.06;99349.97;687828;28;45223;-69
2021/12/29 01:04:45;;;;;;;1.50;1.50;;;;;;;2.96;69.36;99348.28;690838;28;909;-70
2021/12/29 01:05:09;;;;;;;7.78;7.47;;;;;;;2.96;69.43;99349.13;689487;28;21407;-69
2021/12/29 01:05:31;;;;;;;6.05;5.82;;;;;;;2.94;69.42;99351.09;686766;28;92392;-70
2021/12/29 01:05:53;;;;;;;28.17;26.80;;;;;;;2.93;69.42;99349.47;688698;28;44460;-70
2021/12/29 01:06:14;;;;;;;81.10;77.00;;;;;;;2.94;69.56;99351.09;689428;28;47366;-69
2021/12/29 01:06:35;;;;;;;7.85;7.55;;;;;;;2.93;69.76;99352.13;688876;28;21324;-69
2021/12/29 01:06:57;;;;;;;2.40;2.30;;;;;;;2.94;69.79;99356.44;688993;28;23716;-69
2021/12/29 01:07:18;;;;;;;1.23;1.23;;;;;;;2.94;69.92;99351.09;688426;28;44376;-70
2021/12/29 01:07:39;;;;;;;1.05;1.05;;;;;;;2.93;69.95;99353.94;688876;28;22561;-70
2021/12/29 01:08:01;;;;;;;1.10;1.10;;;;;;;2.94;70.20;99358.28;688953;28;21428;-70
2021/12/29 01:08:22;;;;;;;1.10;1.10;;;;;;;2.94;69.90;99356.44;688776;28;45234;-69
2021/12/29 01:08:43;;;;;;;0.90;0.90;;;;;;;2.94;70.20;99353.78;689855;28;21538;-70
2021/12/29 01:09:04;;;;;;;0.93;0.93;;;;;;;2.94;70.33;99356.44;688259;28;22420;-69
2021/12/29 01:09:26;;;;;;;0.80;0.80;;;;;;;2.93;70.35;99348.59;689620;28;21525;-70
2021/12/29 01:09:47;;;;;;;0.88;0.88;;;;;;;2.94;70.41;99353.78;688696;28;45239;-71
2021/12/29 01:10:13;;;;;;;0.73;0.73;;;;;;;2.95;70.47;99358.13;689347;28;21526;-68
2021/12/29 01:10:36;;;;;;;0.73;0.73;;;;;;;2.95;70.49;99354.63;685700;28;137758;-69
2021/12/29 01:10:57;;;;;;;209.95;197.15;;;;;;;2.96;70.79;99361.63;688527;28;46465;-70
2021/12/29 01:11:18;;;;;;;303.95;285.55;;;;;;;2.96;70.70;99358.94;688191;28;45342;-70
2021/12/29 01:11:39;;;;;;;230.23;216.10;;;;;;;2.96;70.76;99358.94;689469;28;21530;-69
2021/12/29 01:12:01;;;;;;;272.60;255.98;;;;;;;2.97;70.67;99358.78;686289;28;22044;-69
2021/12/29 01:12:23;;;;;;;466.23;438.55;;;;;;;2.96;70.96;99357.13;685303;28;45251;-68
2021/12/29 01:12:52;;;;;;;319.02;299.30;;;;;;;2.96;70.88;99359.81;685880;28;45286;-69
2021/12/29 01:13:18;;;;;;;230.32;215.02;;;;;;;2.96;70.91;99356.28;683479;28;160921;-69
2021/12/29 01:13:46;;;;;;;1.00;1.00;;;;;;;2.97;71.05;99358.78;685455;28;137903;-69
2021/12/29 01:14:08;;;;;;;0.60;0.60;;;;;;;2.96;70.73;99357.13;685224;28;137730;-69
2021/12/29 01:14:30;;;;;;;0.88;0.88;;;;;;;2.98;70.87;99356.94;687975;28;47176;-70
2021/12/29 01:14:55;;;;;;;24.65;23.33;;;;;;;2.97;71.39;99363.28;688997;28;44157;-70
2021/12/29 01:15:17;;;;;;;39.25;36.88;;;;;;;2.99;70.78;99361.28;685990;28;114863;-70
2021/12/29 01:15:56;;;;;;;90.55;84.78;;;;;;;2.97;70.73;99358.78;688636;28;46216;-70
2021/12/29 01:16:55;;;;;;;0.50;0.50;;;;;;;2.99;70.76;99363.97;686210;28;106522;-69
2021/12/29 01:17:16;;;;;;;0.60;0.60;;;;;;;2.98;70.94;99360.47;688381;28;47472;-69
2021/12/29 01:17:37;;;;;;;0.70;0.70;;;;;;;2.98;70.97;99362.28;689037;28;21535;-70
2021/12/29 01:18:00;;;;;;;0.60;0.60;;;;;;;2.98;70.83;99363.13;689211;28;22413;-69
2021/12/29 01:18:22;;;;;;;0.60;0.60;;;;;;;3.00;70.90;99360.31;687924;28;69332;-70
2021/12/29 01:18:44;;;;;;;0.60;0.60;;;;;;;3.00;70.90;99360.31;689629;28;43590;-70
2021/12/29 01:19:11;;;;;;;0.60;0.60;;;;;;;3.01;70.89;99359.28;688572;28;20502;-70
2021/12/29 01:19:33;;;;;;;0.63;0.63;;;;;;;3.00;71.23;99365.63;685256;28;138837;-70
2021/12/29 01:19:56;;;;;;;71.88;67.43;;;;;;;2.98;71.01;99357.81;688072;28;47336;-70
2021/12/29 01:20:19;;;;;;;26.83;25.23;;;;;;;3.00;70.97;99362.97;687132;28;69448;-70
2021/12/29 01:20:40;;;;;;;584.28;548.10;;;;;;;2.99;71.05;99358.63;686352;28;67393;-70
2021/12/29 01:21:02;;;;;;;787.85;739.33;;;;;;;3.00;70.96;99362.97;689277;28;22389;-69
2021/12/29 01:21:24;;;;;;;796.53;746.37;;;;;;;2.99;71.07;99364.78;687663;28;69762;-69
2021/12/29 01:21:48;;;;;;;884.97;830.25;;;;;;;3.00;70.97;99369.13;688656;28;44156;-69
2021/12/29 01:22:11;;;;;;;874.92;823.55;;;;;;;2.99;71.04;99372.78;687086;28;92232;-68
2021/12/29 01:22:32;;;;;;;899.45;846.47;;;;;;;3.00;71.14;99365.63;687437;28;69802;-69
2021/12/29 01:22:53;;;;;;;892.95;839.65;;;;;;;3.00;71.13;99373.63;688869;28;22372;-69
2021/12/29 01:23:16;;;;;;;827.90;779.47;;;;;;;3.00;71.13;99366.47;689806;28;21304;-69
2021/12/29 01:23:38;;;;;;;331.93;313.90;;;;;;;2.99;71.09;99367.44;687991;28;69411;-70
2021/12/29 01:24:01;;;;;;;311.23;293.10;;;;;;;2.99;70.85;99369.28;689349;28;5238;-70
2021/12/29 01:24:24;;;;;;;514.20;483.58;;;;;;;2.99;71.13;99367.44;688162;28;47309;-69
2021/12/29 01:24:46;;;;;;;899.10;843.45;;;;;;;2.98;70.96;99367.63;689345;28;92022;-69
2021/12/29 01:25:08;;;;;;;519.40;488.15;;;;;;;2.99;70.97;99364.78;691459;28;44090;-69
2021/12/29 01:25:29;;;;;;;190.27;178.30;;;;;;;2.98;70.90;99373.81;690939;28;44383;-69
2021/12/29 01:25:51;;;;;;;9.30;8.70;;;;;;;2.97;70.92;99369.44;691845;28;23455;-70
2021/12/29 01:26:13;;;;;;;7.38;7.07;;;;;;;2.97;71.16;99368.63;690452;28;42386;-69
2021/12/29 01:26:34;;;;;;;11.68;11.18;;;;;;;2.97;71.09;99369.44;690722;28;44381;-69
2021/12/29 01:26:55;;;;;;;10.32;9.88;;;;;;;2.96;71.03;99367.81;689122;28;22400;-68
2021/12/29 01:27:18;;;;;;;24.40;23.08;;;;;;;2.98;71.15;99364.94;689696;28;23227;-69
2021/12/29 01:27:39;;;;;;;168.25;158.25;;;;;;;2.99;71.26;99371.97;687281;28;70200;-71
2021/12/29 01:28:00;;;;;;;916.60;858.15;;;;;;;2.97;71.38;99364.13;689412;28;22395;-70
2021/12/29 01:28:21;;;;;;;1096.53;999.90;;;;;;;2.97;71.13;99364.13;689663;28;22332;-69
2021/12/29 01:28:44;;;;;;;994.08;934.42;;;;;;;2.97;71.08;99366.78;689002;28;22411;-69
2021/12/29 01:29:05;;;;;;;948.30;890.87;;;;;;;2.98;71.09;99378.28;683913;28;70702;-70
2021/12/29 01:29:26;;;;;;;947.95;887.90;;;;;;;2.97;71.04;99371.28;685628;28;46340;-69
2021/12/29 01:29:48;;;;;;;754.65;711.58;;;;;;;2.98;71.07;99364.94;686353;28;23483;-69
2021/12/29 01:30:11;;;;;;;872.85;821.78;;;;;;;2.97;71.11;99361.44;685572;28;45242;-69
2021/12/29 01:30:33;;;;;;;855.70;805.80;;;;;;;2.97;71.24;99363.28;685821;28;70155;-69
2021/12/29 01:30:54;;;;;;;859.22;808.85;;;;;;;2.96;71.23;99378.47;688727;28;46318;-70
2021/12/29 01:31:15;;;;;;;713.38;672.25;;;;;;;2.96;71.16;99375.81;688809;28;18615;-71
2021/12/29 01:31:36;;;;;;;768.35;724.33;;;;;;;2.96;70.95;99366.94;689153;28;21515;-69
2021/12/29 01:31:59;;;;;;;837.35;788.65;;;;;;;2.96;70.68;99378.47;689278;28;46310;-69
2021/12/29 01:32:20;;;;;;;791.15;745.58;;;;;;;2.95;70.87;99365.28;685186;28;43738;-68
2021/12/29 01:32:41;;;;;;;870.80;819.25;;;;;;;2.95;70.84;99360.78;686557;28;22375;-70
2021/12/29 01:33:06;;;;;;;1034.88;970.90;;;;;;;2.93;70.92;99367.28;686832;28;23449;-69
2021/12/29 01:33:28;;;;;;;1080.13;999.90;;;;;;;2.92;70.78;99370.94;685974;28;115876;-71
2021/12/29 01:33:49;;;;;;;857.63;805.22;;;;;;;2.92;70.90;99382.44;688598;28;45234;-69
2021/12/29 01:34:11;;;;;;;941.47;881.53;;;;;;;2.91;70.74;99380.75;688947;28;23511;-69
2021/12/29 01:34:33;;;;;;;1070.72;999.90;;;;;;;2.91;70.83;99377.28;688515;28;44342;-70
2021/12/29 01:34:54;;;;;;;1091.45;999.90;;;;;;;2.91;70.67;99379.94;689809;28;45010;-70
2021/12/29 01:35:15;;;;;;;1105.03;999.90;;;;;;;2.89;70.59;99377.44;689349;28;23399;-69
2021/12/29 01:35:38;;;;;;;1099.65;999.90;;;;;;;2.89;70.46;99377.44;689343;28;21284;-70
2021/12/29 01:35:59;;;;;;;1082.07;999.90;;;;;;;2.89;70.74;99377.44;686658;28;92370;-69
2021/12/29 01:36:21;;;;;;;1095.45;999.90;;;;;;;2.88;70.73;99384.59;690110;28;48676;-70
2021/12/29 01:36:42;;;;;;;1071.03;990.40;;;;;;;2.88;70.46;99383.75;690863;28;21522;-70
2021/12/29 01:37:05;;;;;;;565.92;530.45;;;;;;;2.86;70.59;99381.25;690762;28;21528;-70
2021/12/29 01:37:26;;;;;;;578.67;545.15;;;;;;;2.87;70.58;99388.25;690504;28;31995;-69
2021/12/29 01:37:47;;;;;;;871.70;819.58;;;;;;;2.87;70.46;99388.25;690402;28;21344;-70
2021/12/29 01:38:09;;;;;;;1027.90;965.47;;;;;;;2.86;70.34;99391.91;690493;28;24172;-70
2021/12/29 01:38:30;;;;;;;953.22;895.47;;;;;;;2.87;70.35;99387.44;688410;28;46366;-69
2021/12/29 01:38:52;;;;;;;989.05;926.40;;;;;;;2.88;70.54;99394.41;688818;28;21689;-68
2021/12/29 01:39:15;;;;;;;700.67;660.85;;;;;;;2.87;70.26;99390.09;688943;28;46374;-68
2021/12/29 01:39:36;;;;;;;933.03;877.25;;;;;;;2.86;70.23;99394.56;687429;28;67161;-67
2021/12/29 01:39:57;;;;;;;1031.47;967.15;;;;;;;2.86;70.31;99391.91;689623;28;23494;-70
2021/12/29 01:40:19;;;;;;;1070.35;998.75;;;;;;;2.87;70.23;99398.09;689570;28;22397;-70
2021/12/29 01:40:41;;;;;;;771.03;726.20;;;;;;;2.85;70.42;99390.25;687941;28;69239;-70
2021/12/29 01:41:02;;;;;;;957.83;896.85;;;;;;;2.85;70.30;99392.94;688575;28;46604;-70
2021/12/29 01:41:23;;;;;;;993.90;930.33;;;;;;;2.85;70.34;99400.94;689360;28;22469;-69
2021/12/29 01:41:46;;;;;;;1039.30;972.95;;;;;;;2.85;70.30;99395.59;688838;28;22428;-70
2021/12/29 01:42:07;;;;;;;1021.13;955.53;;;;;;;2.85;70.39;99394.75;687975;28;68351;-70
2021/12/29 01:42:28;;;;;;;969.03;906.55;;;;;;;2.84;70.42;99396.56;689256;28;23468;-70
2021/12/29 01:42:50;;;;;;;1070.25;999.90;;;;;;;2.84;70.26;99404.59;689403;28;22360;-70
2021/12/29 01:43:12;;;;;;;1108.60;999.90;;;;;;;2.84;70.45;99395.75;689368;28;21542;-69
2021/12/29 01:43:33;;;;;;;1110.63;999.90;;;;;;;2.84;70.39;99398.41;688391;28;46269;-70
2021/12/29 01:43:54;;;;;;;1105.78;999.90;;;;;;;2.84;70.50;99399.25;688504;28;22395;-70
2021/12/29 01:44:16;;;;;;;967.83;907.95;;;;;;;2.84;70.37;99401.09;689442;28;22421;-69
2021/12/29 01:44:38;;;;;;;1051.65;983.47;;;;;;;2.83;70.44;99400.22;687652;28;68057;-70
2021/12/29 01:45:01;;;;;;;1118.00;999.90;;;;;;;2.83;70.01;99402.06;688694;28;45160;-70
2021/12/29 01:45:23;;;;;;;962.63;903.13;;;;;;;2.83;70.27;99400.22;688000;28;69434;-69
2021/12/29 01:45:44;;;;;;;627.13;590.42;;;;;;;2.85;70.29;99402.75;689494;28;22421;-69
2021/12/29 01:46:06;;;;;;;904.60;847.15;;;;;;;2.84;70.23;99401.09;689771;28;23427;-69
2021/12/29 01:46:27;;;;;;;1088.20;999.90;;;;;;;2.85;70.13;99400.06;688281;28;46336;-70
2021/12/29 01:46:48;;;;;;;1118.50;999.90;;;;;;;2.84;70.32;99396.56;688880;28;21520;-70
2021/12/29 01:47:09;;;;;;;1118.47;999.90;;;;;;;2.84;70.30;99401.09;689729;28;23510;-69
2021/12/29 01:47:34;;;;;;;1084.13;999.90;;;;;;;2.85;70.34;99400.94;688784;28;45310;-72
2021/12/29 01:47:55;;;;;;;962.17;905.13;;;;;;;2.86;70.21;99396.41;686535;28;90345;-70
2021/12/29 01:48:16;;;;;;;1049.63;984.45;;;;;;;2.86;70.32;99402.56;689459;28;21584;-69
2021/12/29 01:48:37;;;;;;;994.53;933.92;;;;;;;2.87;70.48;99403.44;689626;28;21523;-70
2021/12/29 01:48:58;;;;;;;646.63;610.47;;;;;;;2.88;70.48;99399.75;688901;28;22400;-70
2021/12/29 01:49:20;;;;;;;250.70;238.07;;;;;;;2.87;70.45;99406.94;689723;28;21599;-70
2021/12/29 01:49:44;;;;;;;86.03;81.90;;;;;;;2.88;70.59;99405.09;687534;28;69391;-69
2021/12/29 01:50:08;;;;;;;88.25;84.00;;;;;;;2.88;70.43;99400.59;688108;28;69061;-70
2021/12/29 01:50:30;;;;;;;32.42;30.95;;;;;;;2.88;70.43;99405.94;687164;28;92327;-69
2021/12/29 01:50:52;;;;;;;41.83;39.85;;;;;;;2.89;70.61;99401.44;688616;28;46472;-69
2021/12/29 01:51:17;;;;;;;94.70;90.07;;;;;;;2.89;70.67;99404.94;688980;28;45248;-69
2021/12/29 01:51:49;;;;;;;128.30;122.03;;;;;;;2.89;70.63;99396.09;685985;28;113594;-69
2021/12/29 01:52:22;;;;;;;237.70;225.85;;;;;;;2.91;70.63;99402.09;688828;28;59427;-69
2021/12/29 01:52:50;;;;;;;248.15;235.95;;;;;;;2.91;70.63;99409.28;685393;28;140289;-70
2021/12/29 01:53:21;;;;;;;19.92;19.08;;;;;;;2.92;70.42;99413.63;684625;28;135036;-70
2021/12/29 01:53:48;;;;;;;54.75;52.15;;;;;;;2.92;70.56;99403.78;685551;28;137374;-70